sensor_id;sensor_type;location;lat;lon;timestamp;P1;durP1;ratioP1;P2;durP2;ratioP2
42110;SDS011;27766;52.174;5.456;2022-11-20T00:01:24;25.83;;;16.42;;
42110;SDS011;27766;52.174;5.456;2022-11-20T00:03:53;30.65;;;16.80;;
42110;SDS011;27766;52.174;5.456;2022-11-20T00:06:22;30.60;;;15.55;;
42110;SDS011;27766;52.174;5.456;2022-11-20T00:08:49;27.83;;;16.73;;
42110;SDS011;27766;52.174;5.456;2022-11-20T00:11:18;26.00;;;15.32;;
42110;SDS011;27766;52.174;5.456;2022-11-20T00:13:48;23.20;;;15.15;;
42110;SDS011;27766;52.174;5.456;2022-11-20T00:16:17;26.60;;;18.23;;
42110;SDS011;27766;52.174;5.456;2022-11-20T00:18:46;25.27;;;17.08;;
42110;SDS011;27766;52.174;5.456;2022-11-20T00:21:14;22.48;;;15.85;;
42110;SDS011;27766;52.174;5.456;2022-11-20T00:23:48;29.55;;;17.98;;
42110;SDS011;27766;52.174;5.456;2022-11-20T00:26:17;27.85;;;17.75;;
42110;SDS011;27766;52.174;5.456;2022-11-20T00:28:49;26.77;;;17.52;;
42110;SDS011;27766;52.174;5.456;2022-11-20T00:31:18;25.42;;;17.05;;
42110;SDS011;27766;52.174;5.456;2022-11-20T00:33:45;26.73;;;18.60;;
42110;SDS011;27766;52.174;5.456;2022-11-20T00:36:14;28.30;;;17.77;;
42110;SDS011;27766;52.174;5.456;2022-11-20T00:38:43;34.03;;;17.65;;
42110;SDS011;27766;52.174;5.456;2022-11-20T00:41:12;28.38;;;18.38;;
42110;SDS011;27766;52.174;5.456;2022-11-20T00:43:41;26.85;;;18.27;;
42110;SDS011;27766;52.174;5.456;2022-11-20T00:46:15;26.55;;;17.48;;
42110;SDS011;27766;52.174;5.456;2022-11-20T00:48:44;26.27;;;16.92;;
42110;SDS011;27766;52.174;5.456;2022-11-20T00:51:16;25.00;;;17.02;;
42110;SDS011;27766;52.174;5.456;2022-11-20T00:53:47;28.92;;;18.10;;
42110;SDS011;27766;52.174;5.456;2022-11-20T00:56:15;26.23;;;17.35;;
42110;SDS011;27766;52.174;5.456;2022-11-20T00:58:45;27.13;;;16.50;;
42110;SDS011;27766;52.174;5.456;2022-11-20T01:03:43;20.52;;;15.63;;
42110;SDS011;27766;52.174;5.456;2022-11-20T01:06:17;21.90;;;15.30;;
42110;SDS011;27766;52.174;5.456;2022-11-20T01:08:46;29.43;;;17.20;;
42110;SDS011;27766;52.174;5.456;2022-11-20T01:11:14;21.77;;;15.27;;
42110;SDS011;27766;52.174;5.456;2022-11-20T01:13:44;25.02;;;17.48;;
42110;SDS011;27766;52.174;5.456;2022-11-20T01:16:31;32.22;;;16.58;;
42110;SDS011;27766;52.174;5.456;2022-11-20T01:19:01;25.48;;;16.40;;
42110;SDS011;27766;52.174;5.456;2022-11-20T01:21:31;24.58;;;15.95;;
42110;SDS011;27766;52.174;5.456;2022-11-20T01:24:00;23.75;;;16.00;;
42110;SDS011;27766;52.174;5.456;2022-11-20T01:26:28;26.92;;;16.50;;
42110;SDS011;27766;52.174;5.456;2022-11-20T01:28:57;26.20;;;14.90;;
42110;SDS011;27766;52.174;5.456;2022-11-20T01:31:26;25.40;;;14.73;;
42110;SDS011;27766;52.174;5.456;2022-11-20T01:33:57;21.98;;;14.43;;
42110;SDS011;27766;52.174;5.456;2022-11-20T01:36:26;23.33;;;14.18;;
42110;SDS011;27766;52.174;5.456;2022-11-20T01:38:55;27.83;;;16.33;;
42110;SDS011;27766;52.174;5.456;2022-11-20T01:41:27;24.50;;;15.15;;
42110;SDS011;27766;52.174;5.456;2022-11-20T01:44:16;37.08;;;16.30;;
42110;SDS011;27766;52.174;5.456;2022-11-20T01:49:34;24.13;;;14.63;;
42110;SDS011;27766;52.174;5.456;2022-11-20T01:52:07;26.73;;;15.95;;
42110;SDS011;27766;52.174;5.456;2022-11-20T01:55:12;19.55;;;13.77;;
42110;SDS011;27766;52.174;5.456;2022-11-20T01:57:39;20.88;;;14.30;;
42110;SDS011;27766;52.174;5.456;2022-11-20T02:00:08;23.73;;;14.73;;
42110;SDS011;27766;52.174;5.456;2022-11-20T02:02:39;20.02;;;14.18;;
42110;SDS011;27766;52.174;5.456;2022-11-20T02:05:16;31.15;;;14.73;;
42110;SDS011;27766;52.174;5.456;2022-11-20T02:07:43;23.50;;;16.10;;
42110;SDS011;27766;52.174;5.456;2022-11-20T02:10:12;27.98;;;17.73;;
42110;SDS011;27766;52.174;5.456;2022-11-20T02:12:39;27.25;;;16.85;;
42110;SDS011;27766;52.174;5.456;2022-11-20T02:15:25;24.38;;;15.40;;
42110;SDS011;27766;52.174;5.456;2022-11-20T02:17:56;19.30;;;13.57;;
42110;SDS011;27766;52.174;5.456;2022-11-20T02:20:23;22.45;;;14.88;;
42110;SDS011;27766;52.174;5.456;2022-11-20T02:22:53;22.20;;;14.75;;
42110;SDS011;27766;52.174;5.456;2022-11-20T02:25:24;27.25;;;16.30;;
42110;SDS011;27766;52.174;5.456;2022-11-20T02:27:54;22.02;;;14.52;;
42110;SDS011;27766;52.174;5.456;2022-11-20T02:30:21;29.77;;;14.98;;
42110;SDS011;27766;52.174;5.456;2022-11-20T02:32:48;20.40;;;14.30;;
42110;SDS011;27766;52.174;5.456;2022-11-20T02:37:47;21.40;;;15.73;;
42110;SDS011;27766;52.174;5.456;2022-11-20T02:40:16;22.30;;;13.40;;
42110;SDS011;27766;52.174;5.456;2022-11-20T02:42:43;23.20;;;15.13;;
42110;SDS011;27766;52.174;5.456;2022-11-20T02:45:11;28.33;;;16.88;;
42110;SDS011;27766;52.174;5.456;2022-11-20T02:47:38;23.45;;;15.07;;
42110;SDS011;27766;52.174;5.456;2022-11-20T02:50:06;22.40;;;14.60;;
42110;SDS011;27766;52.174;5.456;2022-11-20T02:52:33;20.63;;;14.30;;
42110;SDS011;27766;52.174;5.456;2022-11-20T02:55:00;23.17;;;14.65;;
42110;SDS011;27766;52.174;5.456;2022-11-20T02:57:27;21.60;;;14.50;;
42110;SDS011;27766;52.174;5.456;2022-11-20T02:59:54;25.63;;;14.73;;
42110;SDS011;27766;52.174;5.456;2022-11-20T03:02:21;22.73;;;15.35;;
42110;SDS011;27766;52.174;5.456;2022-11-20T03:04:48;23.48;;;14.57;;
42110;SDS011;27766;52.174;5.456;2022-11-20T03:07:16;20.88;;;15.18;;
42110;SDS011;27766;52.174;5.456;2022-11-20T03:09:43;23.65;;;14.98;;
42110;SDS011;27766;52.174;5.456;2022-11-20T03:12:10;23.70;;;14.48;;
42110;SDS011;27766;52.174;5.456;2022-11-20T03:14:37;27.23;;;14.90;;
42110;SDS011;27766;52.174;5.456;2022-11-20T03:17:04;22.42;;;14.13;;
42110;SDS011;27766;52.174;5.456;2022-11-20T03:19:31;26.27;;;14.70;;
42110;SDS011;27766;52.174;5.456;2022-11-20T03:21:58;26.48;;;14.32;;
42110;SDS011;27766;52.174;5.456;2022-11-20T03:24:26;21.85;;;13.80;;
42110;SDS011;27766;52.174;5.456;2022-11-20T03:26:53;21.00;;;14.13;;
42110;SDS011;27766;52.174;5.456;2022-11-20T03:29:21;21.73;;;14.32;;
42110;SDS011;27766;52.174;5.456;2022-11-20T03:31:48;23.67;;;14.48;;
42110;SDS011;27766;52.174;5.456;2022-11-20T03:34:15;20.00;;;13.35;;
42110;SDS011;27766;52.174;5.456;2022-11-20T03:36:42;20.33;;;13.70;;
42110;SDS011;27766;52.174;5.456;2022-11-20T03:39:09;24.63;;;14.07;;
42110;SDS011;27766;52.174;5.456;2022-11-20T03:41:37;23.13;;;13.50;;
42110;SDS011;27766;52.174;5.456;2022-11-20T03:44:07;17.90;;;12.25;;
42110;SDS011;27766;52.174;5.456;2022-11-20T03:46:36;23.90;;;13.18;;
42110;SDS011;27766;52.174;5.456;2022-11-20T03:49:03;25.63;;;13.32;;
42110;SDS011;27766;52.174;5.456;2022-11-20T03:51:31;21.73;;;13.18;;
42110;SDS011;27766;52.174;5.456;2022-11-20T03:54:04;26.23;;;12.30;;
42110;SDS011;27766;52.174;5.456;2022-11-20T03:56:33;21.67;;;12.38;;
42110;SDS011;27766;52.174;5.456;2022-11-20T03:59:02;22.48;;;13.00;;
42110;SDS011;27766;52.174;5.456;2022-11-20T04:01:32;20.42;;;12.27;;
42110;SDS011;27766;52.174;5.456;2022-11-20T04:04:00;20.85;;;13.63;;
42110;SDS011;27766;52.174;5.456;2022-11-20T04:06:35;20.27;;;13.27;;
42110;SDS011;27766;52.174;5.456;2022-11-20T04:09:04;16.38;;;11.63;;
42110;SDS011;27766;52.174;5.456;2022-11-20T04:11:33;20.30;;;11.70;;
42110;SDS011;27766;52.174;5.456;2022-11-20T04:14:03;20.48;;;12.25;;
42110;SDS011;27766;52.174;5.456;2022-11-20T04:16:34;17.05;;;12.38;;
42110;SDS011;27766;52.174;5.456;2022-11-20T04:19:03;17.15;;;11.13;;
42110;SDS011;27766;52.174;5.456;2022-11-20T04:21:32;16.38;;;11.77;;
42110;SDS011;27766;52.174;5.456;2022-11-20T04:23:59;17.52;;;11.15;;
42110;SDS011;27766;52.174;5.456;2022-11-20T04:26:26;17.98;;;12.00;;
42110;SDS011;27766;52.174;5.456;2022-11-20T04:28:54;16.77;;;11.88;;
42110;SDS011;27766;52.174;5.456;2022-11-20T04:31:26;22.85;;;12.75;;
42110;SDS011;27766;52.174;5.456;2022-11-20T04:33:55;22.58;;;13.45;;
42110;SDS011;27766;52.174;5.456;2022-11-20T04:36:25;19.67;;;11.98;;
42110;SDS011;27766;52.174;5.456;2022-11-20T04:38:55;14.07;;;10.75;;
42110;SDS011;27766;52.174;5.456;2022-11-20T04:41:25;17.50;;;11.23;;
42110;SDS011;27766;52.174;5.456;2022-11-20T04:43:54;23.52;;;12.75;;
42110;SDS011;27766;52.174;5.456;2022-11-20T04:46:26;17.97;;;12.20;;
42110;SDS011;27766;52.174;5.456;2022-11-20T04:48:54;21.88;;;12.30;;
42110;SDS011;27766;52.174;5.456;2022-11-20T04:51:21;19.58;;;12.25;;
42110;SDS011;27766;52.174;5.456;2022-11-20T04:53:48;19.45;;;10.60;;
42110;SDS011;27766;52.174;5.456;2022-11-20T04:56:16;34.33;;;12.60;;
42110;SDS011;27766;52.174;5.456;2022-11-20T04:58:43;29.10;;;14.20;;
42110;SDS011;27766;52.174;5.456;2022-11-20T05:01:11;20.67;;;13.10;;
42110;SDS011;27766;52.174;5.456;2022-11-20T05:03:41;20.92;;;11.90;;
42110;SDS011;27766;52.174;5.456;2022-11-20T05:06:10;16.33;;;11.23;;
42110;SDS011;27766;52.174;5.456;2022-11-20T05:08:39;16.17;;;10.88;;
42110;SDS011;27766;52.174;5.456;2022-11-20T05:11:07;17.35;;;11.52;;
42110;SDS011;27766;52.174;5.456;2022-11-20T05:13:42;20.23;;;11.60;;
42110;SDS011;27766;52.174;5.456;2022-11-20T05:16:10;21.85;;;12.43;;
42110;SDS011;27766;52.174;5.456;2022-11-20T05:18:39;25.23;;;11.95;;
42110;SDS011;27766;52.174;5.456;2022-11-20T05:21:07;17.95;;;11.68;;
42110;SDS011;27766;52.174;5.456;2022-11-20T05:23:35;18.55;;;11.65;;
42110;SDS011;27766;52.174;5.456;2022-11-20T05:26:03;16.02;;;11.52;;
42110;SDS011;27766;52.174;5.456;2022-11-20T05:28:31;14.85;;;11.20;;
42110;SDS011;27766;52.174;5.456;2022-11-20T05:31:06;16.13;;;11.20;;
42110;SDS011;27766;52.174;5.456;2022-11-20T05:33:34;15.65;;;10.88;;
42110;SDS011;27766;52.174;5.456;2022-11-20T05:36:02;16.80;;;11.63;;
42110;SDS011;27766;52.174;5.456;2022-11-20T05:38:30;24.58;;;11.75;;
42110;SDS011;27766;52.174;5.456;2022-11-20T05:43:31;16.38;;;10.77;;
42110;SDS011;27766;52.174;5.456;2022-11-20T05:46:00;17.52;;;11.90;;
42110;SDS011;27766;52.174;5.456;2022-11-20T05:48:28;22.00;;;12.88;;
42110;SDS011;27766;52.174;5.456;2022-11-20T05:50:56;20.08;;;10.98;;
42110;SDS011;27766;52.174;5.456;2022-11-20T05:53:25;16.02;;;11.00;;
42110;SDS011;27766;52.174;5.456;2022-11-20T05:55:57;18.35;;;11.60;;
42110;SDS011;27766;52.174;5.456;2022-11-20T05:58:25;15.23;;;10.63;;
42110;SDS011;27766;52.174;5.456;2022-11-20T06:00:52;22.13;;;11.95;;
42110;SDS011;27766;52.174;5.456;2022-11-20T06:03:19;16.08;;;12.20;;
42110;SDS011;27766;52.174;5.456;2022-11-20T06:05:46;18.83;;;12.27;;
42110;SDS011;27766;52.174;5.456;2022-11-20T06:08:14;17.65;;;11.65;;
42110;SDS011;27766;52.174;5.456;2022-11-20T06:10:41;14.27;;;10.75;;
42110;SDS011;27766;52.174;5.456;2022-11-20T06:13:08;15.27;;;10.88;;
42110;SDS011;27766;52.174;5.456;2022-11-20T06:15:35;19.67;;;11.95;;
42110;SDS011;27766;52.174;5.456;2022-11-20T06:18:02;23.40;;;11.38;;
42110;SDS011;27766;52.174;5.456;2022-11-20T06:20:29;17.55;;;11.32;;
42110;SDS011;27766;52.174;5.456;2022-11-20T06:22:56;15.15;;;10.40;;
42110;SDS011;27766;52.174;5.456;2022-11-20T06:25:23;14.38;;;10.43;;
42110;SDS011;27766;52.174;5.456;2022-11-20T06:27:50;14.55;;;10.38;;
42110;SDS011;27766;52.174;5.456;2022-11-20T06:30:18;15.38;;;10.00;;
42110;SDS011;27766;52.174;5.456;2022-11-20T06:32:45;14.57;;;10.70;;
42110;SDS011;27766;52.174;5.456;2022-11-20T06:35:12;20.52;;;10.90;;
42110;SDS011;27766;52.174;5.456;2022-11-20T06:37:39;19.00;;;11.75;;
42110;SDS011;27766;52.174;5.456;2022-11-20T06:40:06;18.48;;;10.90;;
42110;SDS011;27766;52.174;5.456;2022-11-20T06:42:34;18.65;;;11.55;;
42110;SDS011;27766;52.174;5.456;2022-11-20T06:45:01;17.88;;;13.32;;
42110;SDS011;27766;52.174;5.456;2022-11-20T06:47:28;19.98;;;13.02;;
42110;SDS011;27766;52.174;5.456;2022-11-20T06:49:55;21.20;;;14.23;;
42110;SDS011;27766;52.174;5.456;2022-11-20T06:52:22;20.17;;;13.45;;
42110;SDS011;27766;52.174;5.456;2022-11-20T06:54:49;19.10;;;14.63;;
42110;SDS011;27766;52.174;5.456;2022-11-20T06:57:16;20.70;;;14.35;;
42110;SDS011;27766;52.174;5.456;2022-11-20T06:59:43;17.40;;;12.98;;
42110;SDS011;27766;52.174;5.456;2022-11-20T07:02:11;19.13;;;12.48;;
42110;SDS011;27766;52.174;5.456;2022-11-20T07:04:38;16.98;;;12.70;;
42110;SDS011;27766;52.174;5.456;2022-11-20T07:07:06;23.30;;;12.20;;
42110;SDS011;27766;52.174;5.456;2022-11-20T07:09:33;16.00;;;11.18;;
42110;SDS011;27766;52.174;5.456;2022-11-20T07:12:00;17.10;;;11.30;;
42110;SDS011;27766;52.174;5.456;2022-11-20T07:14:27;15.52;;;10.52;;
42110;SDS011;27766;52.174;5.456;2022-11-20T07:16:55;20.05;;;11.93;;
42110;SDS011;27766;52.174;5.456;2022-11-20T07:19:22;16.50;;;10.32;;
42110;SDS011;27766;52.174;5.456;2022-11-20T07:21:50;20.77;;;12.80;;
42110;SDS011;27766;52.174;5.456;2022-11-20T07:24:17;25.55;;;14.38;;
42110;SDS011;27766;52.174;5.456;2022-11-20T07:26:48;20.40;;;12.65;;
42110;SDS011;27766;52.174;5.456;2022-11-20T07:29:17;18.30;;;11.82;;
42110;SDS011;27766;52.174;5.456;2022-11-20T07:31:45;19.85;;;13.13;;
42110;SDS011;27766;52.174;5.456;2022-11-20T07:34:12;23.20;;;13.95;;
42110;SDS011;27766;52.174;5.456;2022-11-20T07:36:40;18.30;;;12.60;;
42110;SDS011;27766;52.174;5.456;2022-11-20T07:39:07;18.77;;;12.73;;
42110;SDS011;27766;52.174;5.456;2022-11-20T07:41:34;18.55;;;12.63;;
42110;SDS011;27766;52.174;5.456;2022-11-20T07:44:01;28.38;;;12.60;;
42110;SDS011;27766;52.174;5.456;2022-11-20T07:46:28;22.15;;;15.70;;
42110;SDS011;27766;52.174;5.456;2022-11-20T07:48:55;21.35;;;13.63;;
42110;SDS011;27766;52.174;5.456;2022-11-20T07:51:22;22.73;;;14.55;;
42110;SDS011;27766;52.174;5.456;2022-11-20T07:53:50;22.60;;;16.30;;
42110;SDS011;27766;52.174;5.456;2022-11-20T07:56:18;22.02;;;13.93;;
42110;SDS011;27766;52.174;5.456;2022-11-20T07:58:49;32.17;;;15.85;;
42110;SDS011;27766;52.174;5.456;2022-11-20T08:01:17;22.95;;;16.30;;
42110;SDS011;27766;52.174;5.456;2022-11-20T08:03:44;24.85;;;14.02;;
42110;SDS011;27766;52.174;5.456;2022-11-20T08:06:11;24.02;;;14.05;;
42110;SDS011;27766;52.174;5.456;2022-11-20T08:08:38;26.88;;;14.48;;
42110;SDS011;27766;52.174;5.456;2022-11-20T08:11:08;23.10;;;14.70;;
42110;SDS011;27766;52.174;5.456;2022-11-20T08:13:54;23.88;;;14.20;;
42110;SDS011;27766;52.174;5.456;2022-11-20T08:16:44;23.25;;;13.75;;
42110;SDS011;27766;52.174;5.456;2022-11-20T08:19:12;17.95;;;13.10;;
42110;SDS011;27766;52.174;5.456;2022-11-20T08:21:41;21.13;;;13.52;;
42110;SDS011;27766;52.174;5.456;2022-11-20T08:24:09;20.67;;;14.00;;
42110;SDS011;27766;52.174;5.456;2022-11-20T08:26:37;20.17;;;14.30;;
42110;SDS011;27766;52.174;5.456;2022-11-20T08:29:06;24.85;;;15.85;;
42110;SDS011;27766;52.174;5.456;2022-11-20T08:31:33;18.13;;;13.05;;
42110;SDS011;27766;52.174;5.456;2022-11-20T08:34:00;23.20;;;14.68;;
42110;SDS011;27766;52.174;5.456;2022-11-20T08:36:34;20.65;;;15.48;;
42110;SDS011;27766;52.174;5.456;2022-11-20T08:39:02;25.42;;;16.08;;
42110;SDS011;27766;52.174;5.456;2022-11-20T08:41:30;28.58;;;16.40;;
42110;SDS011;27766;52.174;5.456;2022-11-20T08:44:00;30.83;;;18.35;;
42110;SDS011;27766;52.174;5.456;2022-11-20T08:46:35;32.28;;;15.02;;
42110;SDS011;27766;52.174;5.456;2022-11-20T08:49:08;22.00;;;14.10;;
42110;SDS011;27766;52.174;5.456;2022-11-20T08:51:37;25.35;;;15.52;;
42110;SDS011;27766;52.174;5.456;2022-11-20T08:54:05;25.75;;;15.88;;
42110;SDS011;27766;52.174;5.456;2022-11-20T08:56:33;22.77;;;14.20;;
42110;SDS011;27766;52.174;5.456;2022-11-20T08:59:01;24.02;;;14.68;;
42110;SDS011;27766;52.174;5.456;2022-11-20T09:01:48;29.80;;;18.70;;
42110;SDS011;27766;52.174;5.456;2022-11-20T09:04:15;22.48;;;15.20;;
42110;SDS011;27766;52.174;5.456;2022-11-20T09:06:42;23.48;;;16.17;;
42110;SDS011;27766;52.174;5.456;2022-11-20T09:09:10;28.55;;;17.10;;
42110;SDS011;27766;52.174;5.456;2022-11-20T09:11:37;26.45;;;15.25;;
42110;SDS011;27766;52.174;5.456;2022-11-20T09:14:04;30.73;;;17.38;;
42110;SDS011;27766;52.174;5.456;2022-11-20T09:16:31;27.35;;;19.52;;
42110;SDS011;27766;52.174;5.456;2022-11-20T09:18:59;33.80;;;16.73;;
42110;SDS011;27766;52.174;5.456;2022-11-20T09:21:47;27.83;;;16.13;;
42110;SDS011;27766;52.174;5.456;2022-11-20T09:24:15;19.08;;;14.32;;
42110;SDS011;27766;52.174;5.456;2022-11-20T09:26:42;22.15;;;15.73;;
42110;SDS011;27766;52.174;5.456;2022-11-20T09:29:09;22.98;;;15.85;;
42110;SDS011;27766;52.174;5.456;2022-11-20T09:31:37;18.52;;;13.60;;
42110;SDS011;27766;52.174;5.456;2022-11-20T09:34:05;23.92;;;15.98;;
42110;SDS011;27766;52.174;5.456;2022-11-20T09:36:32;23.70;;;17.08;;
42110;SDS011;27766;52.174;5.456;2022-11-20T09:38:59;24.55;;;16.73;;
42110;SDS011;27766;52.174;5.456;2022-11-20T09:41:36;23.17;;;15.80;;
42110;SDS011;27766;52.174;5.456;2022-11-20T09:44:26;27.88;;;17.48;;
42110;SDS011;27766;52.174;5.456;2022-11-20T09:47:15;32.50;;;16.10;;
42110;SDS011;27766;52.174;5.456;2022-11-20T09:56:13;23.73;;;15.73;;
42110;SDS011;27766;52.174;5.456;2022-11-20T09:58:54;20.95;;;15.70;;
42110;SDS011;27766;52.174;5.456;2022-11-20T10:01:26;22.17;;;15.38;;
42110;SDS011;27766;52.174;5.456;2022-11-20T10:04:06;24.42;;;15.77;;
42110;SDS011;27766;52.174;5.456;2022-11-20T10:06:39;23.65;;;18.17;;
42110;SDS011;27766;52.174;5.456;2022-11-20T10:09:50;36.88;;;21.55;;
42110;SDS011;27766;52.174;5.456;2022-11-20T10:12:37;29.05;;;17.98;;
42110;SDS011;27766;52.174;5.456;2022-11-20T10:26:21;25.65;;;17.30;;
42110;SDS011;27766;52.174;5.456;2022-11-20T10:31:44;27.13;;;17.45;;
42110;SDS011;27766;52.174;5.456;2022-11-20T10:36:54;22.05;;;15.85;;
42110;SDS011;27766;52.174;5.456;2022-11-20T10:42:11;27.48;;;20.63;;
42110;SDS011;27766;52.174;5.456;2022-11-20T10:44:45;30.75;;;17.13;;
42110;SDS011;27766;52.174;5.456;2022-11-20T10:47:32;25.25;;;16.58;;
42110;SDS011;27766;52.174;5.456;2022-11-20T10:50:04;27.05;;;16.92;;
42110;SDS011;27766;52.174;5.456;2022-11-20T11:01:17;29.40;;;18.33;;
42110;SDS011;27766;52.174;5.456;2022-11-20T11:03:50;25.17;;;17.83;;
42110;SDS011;27766;52.174;5.456;2022-11-20T11:06:28;29.60;;;20.45;;
42110;SDS011;27766;52.174;5.456;2022-11-20T11:09:02;27.92;;;19.70;;
42110;SDS011;27766;52.174;5.456;2022-11-20T11:11:35;30.73;;;19.55;;
42110;SDS011;27766;52.174;5.456;2022-11-20T11:14:05;33.97;;;21.73;;
42110;SDS011;27766;52.174;5.456;2022-11-20T11:16:51;30.80;;;19.02;;
42110;SDS011;27766;52.174;5.456;2022-11-20T11:19:20;30.58;;;19.95;;
42110;SDS011;27766;52.174;5.456;2022-11-20T11:21:52;27.80;;;19.30;;
42110;SDS011;27766;52.174;5.456;2022-11-20T11:24:23;30.42;;;20.45;;
42110;SDS011;27766;52.174;5.456;2022-11-20T11:27:12;28.30;;;19.63;;
42110;SDS011;27766;52.174;5.456;2022-11-20T11:29:47;33.53;;;21.90;;
42110;SDS011;27766;52.174;5.456;2022-11-20T11:32:17;32.83;;;21.20;;
42110;SDS011;27766;52.174;5.456;2022-11-20T11:35:04;34.38;;;21.75;;
42110;SDS011;27766;52.174;5.456;2022-11-20T11:37:34;36.30;;;23.13;;
42110;SDS011;27766;52.174;5.456;2022-11-20T11:40:03;36.25;;;22.48;;
42110;SDS011;27766;52.174;5.456;2022-11-20T11:42:54;35.85;;;21.92;;
42110;SDS011;27766;52.174;5.456;2022-11-20T11:45:24;38.58;;;21.88;;
42110;SDS011;27766;52.174;5.456;2022-11-20T11:47:52;34.72;;;23.13;;
42110;SDS011;27766;52.174;5.456;2022-11-20T11:50:26;37.83;;;24.20;;
42110;SDS011;27766;52.174;5.456;2022-11-20T11:53:07;35.10;;;23.05;;
42110;SDS011;27766;52.174;5.456;2022-11-20T11:55:45;38.33;;;24.58;;
42110;SDS011;27766;52.174;5.456;2022-11-20T12:03:38;32.83;;;22.83;;
42110;SDS011;27766;52.174;5.456;2022-11-20T12:06:12;36.72;;;24.83;;
42110;SDS011;27766;52.174;5.456;2022-11-20T12:08:51;39.28;;;23.85;;
42110;SDS011;27766;52.174;5.456;2022-11-20T12:14:19;37.00;;;24.33;;
42110;SDS011;27766;52.174;5.456;2022-11-20T12:16:50;36.25;;;22.48;;
42110;SDS011;27766;52.174;5.456;2022-11-20T12:19:19;40.95;;;24.35;;
42110;SDS011;27766;52.174;5.456;2022-11-20T12:22:05;35.10;;;25.63;;
42110;SDS011;27766;52.174;5.456;2022-11-20T12:24:44;41.80;;;25.65;;
42110;SDS011;27766;52.174;5.456;2022-11-20T12:30:14;40.28;;;25.55;;
42110;SDS011;27766;52.174;5.456;2022-11-20T12:35:36;38.25;;;27.63;;
42110;SDS011;27766;52.174;5.456;2022-11-20T12:41:25;55.00;;;31.40;;
42110;SDS011;27766;52.174;5.456;2022-11-20T12:50:08;42.60;;;27.25;;
42110;SDS011;27766;52.174;5.456;2022-11-20T12:53:31;41.33;;;26.98;;
42110;SDS011;27766;52.174;5.456;2022-11-20T13:01:50;57.58;;;36.63;;
42110;SDS011;27766;52.174;5.456;2022-11-20T13:07:13;56.33;;;33.78;;
42110;SDS011;27766;52.174;5.456;2022-11-20T13:09:46;41.42;;;27.80;;
42110;SDS011;27766;52.174;5.456;2022-11-20T13:20:14;37.40;;;25.05;;
42110;SDS011;27766;52.174;5.456;2022-11-20T13:22:44;39.90;;;25.42;;
42110;SDS011;27766;52.174;5.456;2022-11-20T13:25:26;58.15;;;40.15;;
42110;SDS011;27766;52.174;5.456;2022-11-20T13:27:55;46.13;;;33.38;;
42110;SDS011;27766;52.174;5.456;2022-11-20T13:30:25;41.40;;;29.17;;
42110;SDS011;27766;52.174;5.456;2022-11-20T13:32:54;39.75;;;28.15;;
42110;SDS011;27766;52.174;5.456;2022-11-20T13:38:05;39.75;;;26.23;;
42110;SDS011;27766;52.174;5.456;2022-11-20T13:40:38;37.53;;;25.63;;
42110;SDS011;27766;52.174;5.456;2022-11-20T13:43:35;30.23;;;21.25;;
42110;SDS011;27766;52.174;5.456;2022-11-20T13:46:06;33.05;;;22.92;;
42110;SDS011;27766;52.174;5.456;2022-11-20T13:48:41;34.58;;;22.67;;
42110;SDS011;27766;52.174;5.456;2022-11-20T13:51:22;34.70;;;24.95;;
42110;SDS011;27766;52.174;5.456;2022-11-20T14:00:08;34.60;;;23.13;;
42110;SDS011;27766;52.174;5.456;2022-11-20T14:02:37;37.38;;;23.58;;
42110;SDS011;27766;52.174;5.456;2022-11-20T14:05:05;37.75;;;23.05;;
42110;SDS011;27766;52.174;5.456;2022-11-20T14:07:37;33.38;;;22.80;;
42110;SDS011;27766;52.174;5.456;2022-11-20T14:10:21;37.33;;;22.40;;
42110;SDS011;27766;52.174;5.456;2022-11-20T14:12:58;36.40;;;21.58;;
42110;SDS011;27766;52.174;5.456;2022-11-20T14:15:36;34.10;;;23.10;;
42110;SDS011;27766;52.174;5.456;2022-11-20T14:18:12;52.20;;;28.45;;
42110;SDS011;27766;52.174;5.456;2022-11-20T14:20:41;45.42;;;30.77;;
42110;SDS011;27766;52.174;5.456;2022-11-20T14:23:09;34.17;;;23.90;;
42110;SDS011;27766;52.174;5.456;2022-11-20T14:25:37;36.13;;;26.30;;
42110;SDS011;27766;52.174;5.456;2022-11-20T14:28:18;47.42;;;28.90;;
42110;SDS011;27766;52.174;5.456;2022-11-20T14:30:52;43.33;;;31.40;;
42110;SDS011;27766;52.174;5.456;2022-11-20T14:33:20;42.33;;;27.85;;
42110;SDS011;27766;52.174;5.456;2022-11-20T14:35:52;37.95;;;26.45;;
42110;SDS011;27766;52.174;5.456;2022-11-20T14:38:25;40.83;;;25.65;;
42110;SDS011;27766;52.174;5.456;2022-11-20T14:40:53;40.67;;;27.42;;
42110;SDS011;27766;52.174;5.456;2022-11-20T14:43:30;41.70;;;27.02;;
42110;SDS011;27766;52.174;5.456;2022-11-20T14:46:01;38.92;;;25.13;;
42110;SDS011;27766;52.174;5.456;2022-11-20T14:48:35;43.15;;;26.17;;
42110;SDS011;27766;52.174;5.456;2022-11-20T14:51:08;38.90;;;27.13;;
42110;SDS011;27766;52.174;5.456;2022-11-20T14:53:37;76.97;;;42.08;;
42110;SDS011;27766;52.174;5.456;2022-11-20T14:56:04;53.78;;;30.92;;
42110;SDS011;27766;52.174;5.456;2022-11-20T14:58:32;36.03;;;25.20;;
42110;SDS011;27766;52.174;5.456;2022-11-20T15:01:01;44.03;;;26.92;;
42110;SDS011;27766;52.174;5.456;2022-11-20T15:03:34;47.10;;;28.15;;
42110;SDS011;27766;52.174;5.456;2022-11-20T15:06:04;45.00;;;29.27;;
42110;SDS011;27766;52.174;5.456;2022-11-20T15:08:32;46.55;;;29.25;;
42110;SDS011;27766;52.174;5.456;2022-11-20T15:11:00;43.70;;;27.85;;
42110;SDS011;27766;52.174;5.456;2022-11-20T15:13:32;43.88;;;28.52;;
42110;SDS011;27766;52.174;5.456;2022-11-20T15:16:01;45.97;;;29.77;;
42110;SDS011;27766;52.174;5.456;2022-11-20T15:18:36;47.38;;;30.67;;
42110;SDS011;27766;52.174;5.456;2022-11-20T15:21:11;47.55;;;27.75;;
42110;SDS011;27766;52.174;5.456;2022-11-20T15:23:40;37.25;;;27.23;;
42110;SDS011;27766;52.174;5.456;2022-11-20T15:26:08;46.22;;;28.70;;
42110;SDS011;27766;52.174;5.456;2022-11-20T15:28:44;61.53;;;38.10;;
42110;SDS011;27766;52.174;5.456;2022-11-20T15:31:19;46.10;;;31.08;;
42110;SDS011;27766;52.174;5.456;2022-11-20T15:33:48;52.83;;;35.03;;
42110;SDS011;27766;52.174;5.456;2022-11-20T15:36:16;49.65;;;31.73;;
42110;SDS011;27766;52.174;5.456;2022-11-20T15:38:44;46.00;;;29.60;;
42110;SDS011;27766;52.174;5.456;2022-11-20T15:41:11;51.05;;;31.65;;
42110;SDS011;27766;52.174;5.456;2022-11-20T15:43:38;61.45;;;37.13;;
42110;SDS011;27766;52.174;5.456;2022-11-20T15:46:15;67.43;;;38.03;;
42110;SDS011;27766;52.174;5.456;2022-11-20T15:48:46;66.65;;;41.53;;
42110;SDS011;27766;52.174;5.456;2022-11-20T15:51:21;52.60;;;32.83;;
42110;SDS011;27766;52.174;5.456;2022-11-20T15:53:55;43.95;;;28.48;;
42110;SDS011;27766;52.174;5.456;2022-11-20T15:56:23;53.08;;;32.33;;
42110;SDS011;27766;52.174;5.456;2022-11-20T15:58:51;62.53;;;40.33;;
42110;SDS011;27766;52.174;5.456;2022-11-20T16:01:19;76.80;;;48.47;;
42110;SDS011;27766;52.174;5.456;2022-11-20T16:03:48;60.35;;;37.65;;
42110;SDS011;27766;52.174;5.456;2022-11-20T16:06:15;67.28;;;45.13;;
42110;SDS011;27766;52.174;5.456;2022-11-20T16:08:43;68.88;;;42.38;;
42110;SDS011;27766;52.174;5.456;2022-11-20T16:11:14;51.28;;;34.05;;
42110;SDS011;27766;52.174;5.456;2022-11-20T16:13:42;83.00;;;51.13;;
42110;SDS011;27766;52.174;5.456;2022-11-20T16:16:28;52.20;;;33.83;;